Time;durP1;ratioP1;P1;durP2;ratioP2;P2;SDS_P1;SDS_P2;PMS_P1;PMS_P2;Temp;Humidity;BMP_temperature;BMP_pressure;BME280_temperature;BME280_humidity;BME280_pressure;Samples;Min_cycle;Max_cycle;Signal;HPM_P1;HPM_P2
2021/01/11 00:02:12;;;;;;;15.52;7.22;;;3.80;99.90;;;;;;4928611;29;20032;-74
2021/01/11 00:04:37;;;;;;;12.20;5.68;;;3.80;99.90;;;;;;4928104;29;20024;-74
2021/01/11 00:07:03;;;;;;;13.20;7.00;;;3.80;99.90;;;;;;4928161;29;20074;-74
2021/01/11 00:09:28;;;;;;;22.02;7.97;;;3.80;99.90;;;;;;4927034;29;20036;-72
2021/01/11 00:11:57;;;;;;;13.18;7.10;;;3.80;99.90;;;;;;4927960;29;20101;-75
2021/01/11 00:14:23;;;;;;;13.45;8.18;;;3.80;99.90;;;;;;4928625;29;20038;-74
2021/01/11 00:16:48;;;;;;;16.90;7.72;;;3.90;99.90;;;;;;4928533;29;20032;-75
2021/01/11 00:19:14;;;;;;;13.63;5.53;;;3.90;99.90;;;;;;4927735;29;20036;-76
2021/01/11 00:21:39;;;;;;;14.43;7.30;;;3.90;99.90;;;;;;4928344;29;20060;-75
2021/01/11 00:24:05;;;;;;;21.88;7.63;;;3.90;99.90;;;;;;4928277;29;20035;-75
2021/01/11 00:26:31;;;;;;;19.48;7.13;;;3.90;99.90;;;;;;4927682;29;20044;-73
2021/01/11 00:28:56;;;;;;;14.27;7.53;;;3.90;99.90;;;;;;4926928;29;20055;-74
2021/01/11 00:31:23;;;;;;;10.95;6.35;;;3.90;99.90;;;;;;4927453;29;20056;-74
2021/01/11 00:33:50;;;;;;;15.98;6.57;;;3.90;99.90;;;;;;4927027;29;20047;-73
2021/01/11 00:36:15;;;;;;;11.98;5.85;;;3.90;99.90;;;;;;4928029;29;20028;-77
2021/01/11 00:38:41;;;;;;;21.05;8.15;;;3.90;99.90;;;;;;4926579;29;20152;-75
2021/01/11 00:41:07;;;;;;;12.40;7.47;;;3.90;99.90;;;;;;4926100;29;20032;-73
2021/01/11 00:43:32;;;;;;;17.42;8.38;;;3.90;99.90;;;;;;4928035;29;20028;-73
2021/01/11 00:45:58;;;;;;;22.35;8.32;;;3.90;99.90;;;;;;4927614;29;20040;-73
2021/01/11 00:48:24;;;;;;;19.48;7.88;;;3.90;99.90;;;;;;4931762;29;20036;-74
2021/01/11 00:50:50;;;;;;;13.43;7.28;;;3.90;99.90;;;;;;4931997;29;20052;-73
2021/01/11 00:53:15;;;;;;;19.83;7.93;;;3.90;99.90;;;;;;4914254;29;20423;-74
2021/01/11 00:55:41;;;;;;;19.60;8.55;;;3.90;99.90;;;;;;4930512;29;20036;-74
2021/01/11 00:58:06;;;;;;;20.15;8.27;;;3.90;99.90;;;;;;4931317;29;20083;-74
2021/01/11 01:00:32;;;;;;;13.00;6.60;;;3.90;99.90;;;;;;4930229;29;20515;-75
2021/01/11 01:02:58;;;;;;;20.65;8.32;;;3.90;99.90;;;;;;4930368;29;20024;-74
2021/01/11 01:05:23;;;;;;;19.60;8.15;;;3.90;99.90;;;;;;4931195;29;20036;-74
2021/01/11 01:07:49;;;;;;;21.77;8.70;;;4.00;99.90;;;;;;4931790;29;20062;-72
2021/01/11 01:10:15;;;;;;;17.92;8.80;;;3.90;99.90;;;;;;4931567;29;20036;-74
2021/01/11 01:12:41;;;;;;;24.40;9.07;;;3.90;99.90;;;;;;4930934;29;20051;-74
2021/01/11 01:15:10;;;;;;;16.88;7.50;;;3.90;99.90;;;;;;4929670;29;20035;-74
2021/01/11 01:17:36;;;;;;;17.92;9.15;;;3.90;99.90;;;;;;4931347;29;20028;-74
2021/01/11 01:20:05;;;;;;;13.77;6.68;;;3.90;99.90;;;;;;4929793;29;20034;-74
2021/01/11 01:22:31;;;;;;;19.48;8.38;;;3.90;99.90;;;;;;4929849;29;20032;-73
2021/01/11 01:24:56;;;;;;;23.00;9.70;;;4.00;99.90;;;;;;4931557;29;20060;-76
2021/01/11 01:27:22;;;;;;;17.60;7.88;;;4.00;99.90;;;;;;4929505;29;20320;-75
2021/01/11 01:29:47;;;;;;;19.52;8.52;;;4.00;99.90;;;;;;4930930;29;20068;-74
2021/01/11 01:32:13;;;;;;;23.10;8.10;;;4.00;99.90;;;;;;4931158;29;20039;-74
2021/01/11 01:34:38;;;;;;;19.65;8.90;;;3.90;99.90;;;;;;4929495;29;20035;-75
2021/01/11 01:37:04;;;;;;;19.30;9.10;;;4.00;99.90;;;;;;4929780;29;20032;-74
2021/01/11 01:39:30;;;;;;;24.73;9.55;;;4.00;99.90;;;;;;4930815;29;20046;-74
2021/01/11 01:41:55;;;;;;;19.73;9.88;;;4.00;99.90;;;;;;4930823;29;20031;-76
2021/01/11 01:44:21;;;;;;;16.08;7.93;;;3.90;99.90;;;;;;4931033;29;20039;-76
2021/01/11 01:46:46;;;;;;;22.30;7.90;;;4.00;99.90;;;;;;4930883;29;20088;-76
2021/01/11 01:49:12;;;;;;;17.55;8.00;;;3.90;99.90;;;;;;4930194;29;20044;-74
2021/01/11 01:51:40;;;;;;;16.73;8.25;;;3.90;99.90;;;;;;4930759;29;20039;-77
2021/01/11 01:54:06;;;;;;;21.63;9.60;;;3.90;99.90;;;;;;4929047;29;20028;-76
2021/01/11 01:56:32;;;;;;;22.63;9.50;;;3.90;99.90;;;;;;4929394;29;20032;-76
2021/01/11 01:58:58;;;;;;;20.73;8.77;;;3.90;99.90;;;;;;4929426;29;20084;-75
2021/01/11 02:01:26;;;;;;;17.42;9.13;;;4.00;99.90;;;;;;4930094;29;20115;-77
2021/01/11 02:03:52;;;;;;;23.27;9.80;;;3.90;99.90;;;;;;4930552;29;20038;-75
2021/01/11 02:06:18;;;;;;;22.30;7.97;;;3.90;99.90;;;;;;4929173;29;20059;-74
2021/01/11 02:08:43;;;;;;;20.83;10.35;;;3.90;99.90;;;;;;4928878;29;20116;-77
2021/01/11 02:11:28;;;;;;;14.85;8.50;;;3.90;99.90;;;;;;4930305;29;20028;-75
2021/01/11 02:14:00;;;;;;;21.67;8.80;;;3.90;99.90;;;;;;4930197;29;20088;-75
2021/01/11 02:16:35;;;;;;;22.92;9.25;;;3.90;99.90;;;;;;4929932;29;20093;-75
2021/01/11 02:19:16;;;;;;;19.98;9.80;;;3.90;99.90;;;;;;4930288;29;20055;-74
2021/01/11 02:21:51;;;;;;;27.15;11.20;;;3.90;99.90;;;;;;4913022;29;20043;-73
2021/01/11 02:24:51;;;;;;;22.65;10.55;;;3.90;99.90;;;;;;4930199;29;20083;-76
2021/01/11 02:27:17;;;;;;;22.98;10.38;;;3.90;99.90;;;;;;4929841;29;20063;-74
2021/01/11 02:30:02;;;;;;;24.17;10.82;;;3.90;99.90;;;;;;4929461;29;20024;-75
2021/01/11 02:32:29;;;;;;;25.48;10.85;;;3.90;99.90;;;;;;4930017;29;20028;-76
2021/01/11 02:34:57;;;;;;;21.35;8.85;;;3.90;99.90;;;;;;4929551;29;20031;-79
2021/01/11 02:37:24;;;;;;;22.30;10.90;;;3.80;99.90;;;;;;4912534;29;20060;-74
2021/01/11 02:39:51;;;;;;;28.48;11.55;;;3.80;99.90;;;;;;4928703;29;20128;-73
2021/01/11 02:42:17;;;;;;;23.52;9.57;;;3.90;99.90;;;;;;4929673;29;20036;-75
2021/01/11 02:44:42;;;;;;;33.97;11.38;;;3.90;99.90;;;;;;4928467;29;20088;-72
2021/01/11 02:47:08;;;;;;;31.23;12.45;;;3.90;99.90;;;;;;4929405;29;20044;-76
2021/01/11 02:49:47;;;;;;;30.63;11.85;;;3.90;99.90;;;;;;4929240;29;20047;-78
2021/01/11 02:52:21;;;;;;;28.65;11.70;;;3.90;99.90;;;;;;4929805;29;20032;-76
2021/01/11 02:55:01;;;;;;;;;;;3.90;99.90;;;;;;4930317;29;20036;-75
2021/01/11 02:57:32;;;;;;;35.78;11.50;;;3.90;99.90;;;;;;4912151;29;19941;-74
2021/01/11 03:00:05;;;;;;;29.00;11.10;;;3.90;99.90;;;;;;4929592;29;20032;-80
2021/01/11 03:02:32;;;;;;;36.22;14.80;;;3.90;99.90;;;;;;4928309;29;20376;-77
2021/01/11 03:04:58;;;;;;;22.77;10.43;;;3.80;99.90;;;;;;4927735;29;20029;-76
2021/01/11 03:07:24;;;;;;;22.10;10.18;;;3.80;99.90;;;;;;4929271;29;20048;-77
2021/01/11 03:09:50;;;;;;;24.98;11.27;;;3.90;99.90;;;;;;4929134;29;20039;-73
2021/01/11 03:12:15;;;;;;;21.80;9.48;;;3.90;99.90;;;;;;4929163;29;20092;-73
2021/01/11 03:14:41;;;;;;;35.03;14.07;;;3.90;99.90;;;;;;4929177;29;20032;-74
2021/01/11 03:17:07;;;;;;;24.60;9.50;;;3.80;99.90;;;;;;4928711;29;20029;-76
2021/01/11 03:19:33;;;;;;;28.42;11.50;;;3.80;99.90;;;;;;4928978;29;20043;-76
2021/01/11 03:21:58;;;;;;;31.08;11.60;;;3.80;99.90;;;;;;4928935;29;20032;-80
2021/01/11 03:24:24;;;;;;;36.05;11.50;;;3.80;99.90;;;;;;4928674;29;20064;-76
2021/01/11 03:26:51;;;;;;;28.02;12.40;;;3.80;99.90;;;;;;4927741;29;20076;-76
2021/01/11 03:29:18;;;;;;;40.70;13.60;;;3.80;99.90;;;;;;4929084;29;20032;-84
2021/01/11 03:31:45;;;;;;;25.48;11.70;;;3.80;99.90;;;;;;4926967;29;20100;-74
2021/01/11 03:34:11;;;;;;;31.92;13.10;;;3.80;99.90;;;;;;4928952;29;20036;-74
2021/01/11 03:36:38;;;;;;;43.17;12.35;;;3.80;99.90;;;;;;4928863;29;20043;-75
2021/01/11 03:39:08;;;;;;;28.02;11.98;;;3.90;99.90;;;;;;4928582;29;20084;-74
2021/01/11 03:41:35;;;;;;;37.38;11.85;;;3.90;99.90;;;;;;4928949;29;20512;-75
2021/01/11 03:44:01;;;;;;;35.60;12.52;;;3.80;99.90;;;;;;4928367;29;20032;-73
2021/01/11 03:46:28;;;;;;;26.00;12.07;;;3.80;99.90;;;;;;4928594;29;20043;-75
2021/01/11 03:48:55;;;;;;;26.13;12.70;;;3.80;99.90;;;;;;4927395;29;20078;-76
2021/01/11 03:51:21;;;;;;;30.52;13.70;;;3.80;99.90;;;;;;4927254;29;20032;-78
2021/01/11 03:53:46;;;;;;;30.50;12.88;;;3.80;99.90;;;;;;4928494;29;20056;-74
2021/01/11 03:56:12;;;;;;;29.05;13.80;;;3.80;99.90;;;;;;4928471;29;20035;-75
2021/01/11 03:58:38;;;;;;;32.42;12.25;;;3.80;99.90;;;;;;4928322;29;20032;-76
2021/01/11 04:01:04;;;;;;;24.80;9.93;;;3.80;99.90;;;;;;4911304;29;20038;-74
2021/01/11 04:03:30;;;;;;;32.22;12.20;;;3.90;99.90;;;;;;4928494;29;20040;-75
2021/01/11 04:05:56;;;;;;;24.13;10.35;;;3.80;99.90;;;;;;4926962;29;20040;-75
2021/01/11 04:08:23;;;;;;;30.90;12.20;;;3.80;99.90;;;;;;4928290;29;20024;-76
2021/01/11 04:10:49;;;;;;;33.40;13.35;;;3.80;99.90;;;;;;4927236;29;20035;-75
2021/01/11 04:13:16;;;;;;;26.60;11.77;;;3.80;99.90;;;;;;4927795;29;20050;-75
2021/01/11 04:15:41;;;;;;;31.23;12.02;;;3.80;99.90;;;;;;4928097;29;20036;-75
2021/01/11 04:18:07;;;;;;;34.30;13.85;;;3.80;99.90;;;;;;4928254;29;20056;-74
2021/01/11 04:20:33;;;;;;;32.13;12.23;;;3.80;99.90;;;;;;4927129;29;20100;-76
2021/01/11 04:22:59;;;;;;;32.45;13.82;;;3.80;99.90;;;;;;4910746;29;20400;-75
2021/01/11 04:25:25;;;;;;;35.67;14.25;;;3.80;99.90;;;;;;4927960;29;20028;-73
2021/01/11 04:27:52;;;;;;;26.52;12.27;;;3.80;99.90;;;;;;4928079;29;20028;-76
2021/01/11 04:30:18;;;;;;;33.28;10.50;;;3.80;99.90;;;;;;4926596;29;20056;-75
2021/01/11 04:32:44;;;;;;;31.25;12.30;;;3.80;99.90;;;;;;4926460;29;20099;-74
2021/01/11 04:35:10;;;;;;;27.77;11.73;;;3.80;99.90;;;;;;4927628;29;20092;-75
2021/01/11 04:37:39;;;;;;;26.55;11.90;;;3.80;99.90;;;;;;4926626;29;20043;-75
2021/01/11 04:40:09;;;;;;;20.80;9.20;;;3.80;99.90;;;;;;4925022;29;20039;-73
2021/01/11 04:42:46;;;;;;;22.92;12.32;;;3.80;99.90;;;;;;4927956;29;20059;-75
2021/01/11 04:45:16;;;;;;;23.75;8.98;;;3.70;99.90;;;;;;4927681;29;20036;-74
2021/01/11 04:47:42;;;;;;;24.02;9.10;;;3.80;99.90;;;;;;4927701;29;20040;-75
2021/01/11 04:50:09;;;;;;;27.60;11.70;;;3.70;99.90;;;;;;4926543;29;20077;-74
2021/01/11 04:52:35;;;;;;;19.73;9.35;;;3.70;99.90;;;;;;4927998;29;20080;-76
2021/01/11 04:55:02;;;;;;;25.90;11.43;;;3.70;99.90;;;;;;4926319;29;20035;-73
2021/01/11 04:57:36;;;;;;;29.58;10.77;;;3.70;99.90;;;;;;4926625;29;20084;-75
2021/01/11 05:00:06;;;;;;;16.93;8.23;;;3.70;99.90;;;;;;4927828;29;20028;-76
2021/01/11 05:02:35;;;;;;;19.92;9.52;;;3.70;99.90;;;;;;4926309;29;20035;-75
2021/01/11 05:05:00;;;;;;;19.75;9.82;;;3.70;99.90;;;;;;4926579;29;20396;-73
2021/01/11 05:07:31;;;;;;;21.25;10.20;;;3.70;99.90;;;;;;4927481;29;20059;-74
2021/01/11 05:09:57;;;;;;;19.15;7.55;;;3.70;99.90;;;;;;4927796;29;20032;-74
2021/01/11 05:12:23;;;;;;;24.80;9.65;;;3.70;99.90;;;;;;4928114;29;20091;-76
2021/01/11 05:15:08;;;;;;;15.50;8.18;;;3.70;99.90;;;;;;4926397;29;20028;-74
2021/01/11 05:17:42;;;;;;;24.95;10.60;;;3.70;99.90;;;;;;4926290;29;20044;-74
2021/01/11 05:20:08;;;;;;;30.48;8.82;;;3.60;99.90;;;;;;4927708;29;20028;-73
2021/01/11 05:22:33;;;;;;;25.73;10.30;;;3.70;99.90;;;;;;4910226;29;20039;-73
2021/01/11 05:25:12;;;;;;;22.38;7.85;;;3.60;99.90;;;;;;4927587;29;20057;-77
2021/01/11 05:27:37;;;;;;;25.02;11.30;;;3.70;99.90;;;;;;4927640;29;20473;-77
2021/01/11 05:30:03;;;;;;;24.50;8.48;;;3.60;99.90;;;;;;4926714;29;20056;-73
2021/01/11 05:32:29;;;;;;;19.60;8.60;;;3.70;99.90;;;;;;4928345;29;20552;-77
2021/01/11 05:34:55;;;;;;;14.57;7.80;;;3.60;99.90;;;;;;4930710;29;20035;-75
2021/01/11 05:37:36;;;;;;;25.33;8.75;;;3.70;99.90;;;;;;4930973;29;20412;-76
2021/01/11 05:40:13;;;;;;;14.02;6.82;;;3.70;99.90;;;;;;4931055;29;20056;-79
2021/01/11 05:42:40;;;;;;;17.13;8.15;;;3.60;99.90;;;;;;4929307;29;20123;-77
2021/01/11 05:45:09;;;;;;;19.17;7.18;;;3.60;99.90;;;;;;4931003;29;20028;-76
2021/01/11 05:47:51;;;;;;;26.42;8.07;;;3.60;99.90;;;;;;4930822;29;20047;-78
2021/01/11 05:50:17;;;;;;;16.52;7.47;;;3.60;99.90;;;;;;4913609;29;20040;-78
2021/01/11 05:52:43;;;;;;;15.90;7.68;;;3.60;99.90;;;;;;4930711;29;20043;-77
2021/01/11 05:55:24;;;;;;;14.60;6.88;;;3.60;99.90;;;;;;4913573;29;20028;-76
2021/01/11 05:57:58;;;;;;;20.33;7.68;;;3.60;99.90;;;;;;4929273;29;20028;-75
2021/01/11 06:00:26;;;;;;;18.90;7.43;;;3.60;99.90;;;;;;4930580;29;20036;-76
2021/01/11 06:02:57;;;;;;;18.58;7.60;;;3.60;99.90;;;;;;4930706;29;20080;-77
2021/01/11 06:05:23;;;;;;;21.05;9.20;;;3.60;99.90;;;;;;4930303;29;20058;-78
2021/01/11 06:07:49;;;;;;;16.25;6.70;;;3.50;99.90;;;;;;4929473;29;20040;-80
2021/01/11 06:10:16;;;;;;;17.38;6.63;;;3.50;99.90;;;;;;4928913;29;20024;-77
2021/01/11 06:12:43;;;;;;;10.77;5.45;;;3.50;99.90;;;;;;4930010;29;20099;-75
2021/01/11 06:15:11;;;;;;;8.05;3.90;;;3.50;99.90;;;;;;4930137;29;20043;-74
2021/01/11 06:17:42;;;;;;;13.02;6.50;;;3.50;99.90;;;;;;4930342;29;20092;-74
2021/01/11 06:20:13;;;;;;;11.20;5.95;;;3.50;99.90;;;;;;4930054;29;20028;-75
2021/01/11 06:22:44;;;;;;;12.65;6.53;;;3.50;99.90;;;;;;4930321;29;20050;-80
2021/01/11 06:25:24;;;;;;;16.80;6.90;;;3.40;99.90;;;;;;4930370;29;20066;-78
2021/01/11 06:28:03;;;;;;;18.00;5.50;;;3.40;99.90;;;;;;4913296;29;20044;-78
2021/01/11 06:30:36;;;;;;;11.90;5.90;;;3.40;99.90;;;;;;4929416;29;20532;-77
2021/01/11 06:33:08;;;;;;;11.60;5.45;;;3.40;99.90;;;;;;4929740;29;20027;-80
2021/01/11 06:35:48;;;;;;;10.25;5.32;;;3.40;99.90;;;;;;4929920;29;20024;-74
2021/01/11 06:38:21;;;;;;;11.63;5.97;;;3.40;99.90;;;;;;4930017;29;20036;-76
2021/01/11 06:40:51;;;;;;;12.48;5.75;;;3.40;99.90;;;;;;4928546;29;20031;-76
2021/01/11 06:43:19;;;;;;;10.60;5.50;;;3.40;99.90;;;;;;4928504;29;20032;-76
2021/01/11 06:45:46;;;;;;;15.70;5.88;;;3.40;99.90;;;;;;4912079;29;20039;-73
2021/01/11 06:48:19;;;;;;;10.77;5.28;;;3.40;99.90;;;;;;4928216;29;20028;-72
2021/01/11 06:50:49;;;;;;;10.13;4.35;;;3.40;99.90;;;;;;4929814;29;20083;-77
2021/01/11 06:53:27;;;;;;;17.00;7.15;;;3.40;99.90;;;;;;4928934;29;20045;-72
2021/01/11 06:56:09;;;;;;;8.23;4.60;;;3.40;99.90;;;;;;4929499;29;20080;-76
2021/01/11 06:58:37;;;;;;;13.23;6.30;;;3.40;99.90;;;;;;4927963;29;20469;-73
2021/01/11 07:01:08;;;;;;;11.32;6.22;;;3.40;99.90;;;;;;4928944;29;20056;-73
2021/01/11 07:03:48;;;;;;;18.15;7.72;;;3.40;99.90;;;;;;4929034;29;20040;-75
2021/01/11 07:06:40;;;;;;;13.15;5.72;;;3.40;99.90;;;;;;4929046;29;20036;-73
2021/01/11 07:09:19;;;;;;;14.75;6.22;;;3.40;99.90;;;;;;4928515;29;20032;-74
2021/01/11 07:11:50;;;;;;;13.48;6.30;;;3.40;99.90;;;;;;4929229;29;20055;-76
2021/01/11 07:14:22;;;;;;;13.18;7.20;;;3.40;99.90;;;;;;4928931;29;20092;-72
2021/01/11 07:16:53;;;;;;;15.07;5.65;;;3.40;99.90;;;;;;4929138;29;20329;-76
2021/01/11 07:19:37;;;;;;;15.85;6.53;;;3.40;99.90;;;;;;4929214;29;20071;-76
2021/01/11 07:22:09;;;;;;;11.13;6.07;;;3.40;99.90;;;;;;4928383;29;20033;-76
2021/01/11 07:24:44;;;;;;;16.65;6.93;;;3.40;99.90;;;;;;4929010;29;20032;-74
2021/01/11 07:27:09;;;;;;;18.02;6.90;;;3.30;99.90;;;;;;4911657;29;20067;-71
2021/01/11 07:29:36;;;;;;;14.80;7.10;;;3.30;99.90;;;;;;4927485;29;20473;-74
2021/01/11 07:32:02;;;;;;;15.77;6.45;;;3.30;99.90;;;;;;4928723;29;20032;-75
2021/01/11 07:34:28;;;;;;;15.52;7.28;;;3.30;99.90;;;;;;4927520;29;20028;-75
2021/01/11 07:36:56;;;;;;;19.23;7.63;;;3.30;99.90;;;;;;4928638;29;20032;-72
2021/01/11 07:39:22;;;;;;;12.13;6.45;;;3.30;99.90;;;;;;4927263;29;20035;-77
2021/01/11 07:41:50;;;;;;;18.55;8.18;;;3.30;99.90;;;;;;4911482;29;20016;-73
2021/01/11 07:44:26;;;;;;;14.10;5.70;;;3.30;99.90;;;;;;4928647;29;20485;-72
2021/01/11 07:46:56;;;;;;;9.88;3.88;;;3.30;99.90;;;;;;4928555;29;20070;-75
2021/01/11 07:49:24;;;;;;;18.40;6.68;;;3.30;99.90;;;;;;4911847;29;20036;-75
2021/01/11 07:51:50;;;;;;;16.08;6.05;;;3.30;99.90;;;;;;4928924;29;20107;-73
2021/01/11 07:54:18;;;;;;;20.77;7.80;;;3.30;99.90;;;;;;4928580;29;20020;-75
2021/01/11 07:56:44;;;;;;;15.10;6.05;;;3.30;99.90;;;;;;4926715;29;20032;-76
2021/01/11 07:59:10;;;;;;;22.25;9.02;;;3.30;99.90;;;;;;4928481;29;20028;-80
2021/01/11 08:01:43;;;;;;;10.93;6.07;;;3.30;99.90;;;;;;4928049;29;20039;-75
2021/01/11 08:04:10;;;;;;;23.15;7.85;;;3.30;99.90;;;;;;4927971;29;20047;-75
2021/01/11 08:06:59;;;;;;;17.20;7.32;;;3.30;99.90;;;;;;4926476;29;20044;-76
2021/01/11 08:09:27;;;;;;;20.48;8.43;;;3.20;99.90;;;;;;4927061;29;20040;-75
2021/01/11 08:12:11;;;;;;;8.95;4.80;;;3.30;99.90;;;;;;4927550;29;20020;-70
2021/01/11 08:14:36;;;;;;;14.02;7.97;;;3.30;99.90;;;;;;4909355;29;20455;-73
2021/01/11 08:17:05;;;;;;;18.30;6.90;;;3.30;99.90;;;;;;4926271;29;20024;-75
2021/01/11 08:19:32;;;;;;;15.25;6.75;;;3.20;99.90;;;;;;4925771;29;20048;-74
2021/01/11 08:21:59;;;;;;;17.23;6.38;;;3.20;99.90;;;;;;4927622;29;20150;-74
2021/01/11 08:24:25;;;;;;;16.80;6.18;;;3.20;99.90;;;;;;4910232;29;20469;-72
2021/01/11 08:27:03;;;;;;;19.27;7.15;;;3.20;99.90;;;;;;4927492;29;20048;-78
2021/01/11 08:29:31;;;;;;;14.05;6.75;;;3.20;99.90;;;;;;4926045;29;20131;-79
2021/01/11 08:31:59;;;;;;;17.88;5.72;;;3.20;99.90;;;;;;4926929;29;20499;-74
2021/01/11 08:34:25;;;;;;;11.43;6.10;;;3.20;99.90;;;;;;4927046;29;20050;-75
2021/01/11 08:36:52;;;;;;;12.90;7.03;;;3.20;99.90;;;;;;4927482;29;20036;-78
2021/01/11 08:39:20;;;;;;;27.58;8.80;;;3.10;99.90;;;;;;4926580;29;20028;-78
2021/01/11 08:41:48;;;;;;;13.60;6.35;;;3.20;99.90;;;;;;4927840;29;20083;-75
2021/01/11 08:44:27;;;;;;;17.33;7.38;;;3.20;99.90;;;;;;4910796;29;20032;-74
2021/01/11 08:47:04;;;;;;;14.52;5.85;;;3.10;99.90;;;;;;4927494;29;20040;-73
2021/01/11 08:49:31;;;;;;;15.35;6.05;;;3.10;99.90;;;;;;4928181;29;20557;-74
2021/01/11 08:52:12;;;;;;;18.30;7.88;;;3.10;99.90;;;;;;4912154;29;20032;-71
2021/01/11 08:54:38;;;;;;;23.90;7.75;;;3.10;99.90;;;;;;4929398;29;20032;-74
2021/01/11 08:57:15;;;;;;;17.48;7.82;;;3.10;99.90;;;;;;4930166;29;20035;-78
2021/01/11 08:59:48;;;;;;;12.25;6.50;;;3.10;99.90;;;;;;4930649;29;20375;-78
2021/01/11 09:02:22;;;;;;;22.65;8.25;;;3.10;99.90;;;;;;4929522;29;20032;-75
2021/01/11 09:04:48;;;;;;;15.88;7.32;;;3.10;99.90;;;;;;4929420;29;20044;-75
2021/01/11 09:07:13;;;;;;;7.45;3.88;;;3.10;99.90;;;;;;4926911;29;20044;-75
2021/01/11 09:09:39;;;;;;;23.27;9.38;;;3.10;99.90;;;;;;4932151;29;20048;-74
2021/01/11 09:12:08;;;;;;;16.27;6.40;;;3.10;99.90;;;;;;4932714;29;20036;-73
2021/01/11 09:14:51;;;;;;;20.15;6.22;;;3.10;99.90;;;;;;4931893;29;20196;-76
2021/01/11 09:17:25;;;;;;;9.07;4.95;;;3.00;99.90;;;;;;4930649;29;20032;-74
2021/01/11 09:19:51;;;;;;;;;;;3.00;99.90;;;;;;4932694;29;20024;-74
2021/01/11 09:22:17;;;;;;;14.80;6.05;;;3.00;99.90;;;;;;4931555;29;20229;-75
2021/01/11 09:24:43;;;;;;;12.52;4.03;;;3.00;99.90;;;;;;4931876;29;20032;-76
2021/01/11 09:27:09;;;;;;;12.60;5.72;;;3.00;99.90;;;;;;4931610;29;20382;-80
2021/01/11 09:29:37;;;;;;;12.52;5.65;;;3.00;99.90;;;;;;4930493;29;20044;-72
2021/01/11 09:32:03;;;;;;;10.55;5.53;;;3.10;99.90;;;;;;4930655;29;20035;-75
2021/01/11 09:34:32;;;;;;;21.23;7.60;;;3.10;99.90;;;;;;4930990;29;20025;-74
2021/01/11 09:36:58;;;;;;;20.33;9.02;;;3.00;99.90;;;;;;4930774;29;20032;-75
2021/01/11 09:39:25;;;;;;;14.90;5.60;;;3.00;99.90;;;;;;4930723;29;20047;-76
2021/01/11 09:41:54;;;;;;;14.60;5.40;;;3.10;99.90;;;;;;4930678;29;20438;-75
2021/01/11 09:44:20;;;;;;;11.70;4.88;;;3.10;99.90;;;;;;4930735;29;20024;-74
2021/01/11 09:46:52;;;;;;;22.63;8.68;;;3.10;99.90;;;;;;4930419;29;20088;-76
2021/01/11 09:49:19;;;;;;;20.58;8.50;;;3.00;99.90;;;;;;4930649;29;20327;-71
2021/01/11 09:51:45;;;;;;;20.83;7.15;;;3.10;99.90;;;;;;4930229;29;20036;-76
2021/01/11 09:54:10;;;;;;;21.85;7.32;;;3.00;99.90;;;;;;4913422;29;20365;-74
2021/01/11 09:56:37;;;;;;;21.35;6.18;;;3.00;99.90;;;;;;4930033;29;20038;-76
2021/01/11 09:59:07;;;;;;;15.05;6.75;;;3.00;99.90;;;;;;4928849;29;20051;-77
2021/01/11 10:01:46;;;;;;;15.60;6.30;;;3.10;99.90;;;;;;4930224;29;20024;-81
2021/01/11 10:04:14;;;;;;;15.57;6.88;;;3.10;99.90;;;;;;4930027;29;20619;-77
2021/01/11 10:07:06;;;;;;;15.77;6.78;;;3.10;99.90;;;;;;4913080;29;20069;-74
2021/01/11 10:09:33;;;;;;;10.20;3.35;;;3.00;99.90;;;;;;4927348;29;20047;-75
2021/01/11 10:12:04;;;;;;;12.95;4.53;;;3.00;99.90;;;;;;4929439;29;20043;-78
2021/01/11 10:14:32;;;;;;;14.32;6.03;;;3.00;99.90;;;;;;4928902;29;20024;-76
2021/01/11 10:16:58;;;;;;;9.73;4.22;;;3.10;99.90;;;;;;4927434;29;20028;-74
2021/01/11 10:19:26;;;;;;;8.55;4.72;;;3.00;99.90;;;;;;4928284;29;20047;-75
2021/01/11 10:21:53;;;;;;;13.27;5.32;;;3.00;99.90;;;;;;4930179;29;20052;-75
2021/01/11 10:24:20;;;;;;;9.88;4.93;;;3.00;99.90;;;;;;4929778;29;20104;-74
2021/01/11 10:26:47;;;;;;;16.20;6.63;;;3.00;99.90;;;;;;4929662;29;20063;-77
2021/01/11 10:29:18;;;;;;;12.32;6.68;;;3.10;99.90;;;;;;4928335;29;20068;-76
2021/01/11 10:31:45;;;;;;;12.77;6.40;;;3.10;99.90;;;;;;4928972;29;20052;-73
2021/01/11 10:34:12;;;;;;;12.70;6.05;;;3.10;99.90;;;;;;4929490;29;20366;-76
2021/01/11 10:36:39;;;;;;;16.42;5.93;;;3.10;99.90;;;;;;4928340;29;20035;-74
2021/01/11 10:39:06;;;;;;;12.43;6.57;;;3.10;99.90;;;;;;4911617;29;20036;-74
2021/01/11 10:41:31;;;;;;;14.13;6.30;;;3.00;99.90;;;;;;4927580;29;20036;-71
2021/01/11 10:43:57;;;;;;;13.30;5.40;;;3.00;99.90;;;;;;4929607;29;20031;-73
2021/01/11 10:46:22;;;;;;;18.77;5.30;;;3.00;99.90;;;;;;4929097;29;20100;-75
2021/01/11 10:48:48;;;;;;;8.70;4.90;;;3.00;99.90;;;;;;4929790;29;20048;-72
2021/01/11 10:51:14;;;;;;;20.85;7.15;;;3.00;99.90;;;;;;4928053;29;20030;-70
2021/01/11 10:53:44;;;;;;;14.35;6.03;;;3.00;99.90;;;;;;4911965;29;20055;-74
2021/01/11 10:56:11;;;;;;;10.48;5.30;;;3.10;99.90;;;;;;4929202;29;20110;-79
2021/01/11 10:58:37;;;;;;;9.90;3.45;;;3.10;99.90;;;;;;4927884;29;20046;-73
2021/01/11 11:01:08;;;;;;;17.35;6.63;;;3.10;99.90;;;;;;4928450;29;20056;-73
2021/01/11 11:03:34;;;;;;;13.15;5.93;;;3.10;99.90;;;;;;4929189;29;20039;-75
2021/01/11 11:06:00;;;;;;;14.40;5.82;;;3.10;99.90;;;;;;4926122;29;20044;-73
2021/01/11 11:08:26;;;;;;;13.32;7.13;;;3.10;99.90;;;;;;4926106;29;20443;-75
2021/01/11 11:10:52;;;;;;;14.13;6.47;;;3.10;99.90;;;;;;4927350;29;20028;-75
2021/01/11 11:13:18;;;;;;;21.30;8.45;;;3.10;99.90;;;;;;4927393;29;20036;-74
2021/01/11 11:15:47;;;;;;;15.50;7.05;;;3.10;99.90;;;;;;4928402;29;20036;-74
2021/01/11 11:18:13;;;;;;;15.65;7.07;;;3.10;99.90;;;;;;4928661;29;20032;-77
2021/01/11 11:20:40;;;;;;;15.95;7.65;;;3.10;99.90;;;;;;4927792;29;20028;-72
2021/01/11 11:23:06;;;;;;;18.63;6.70;;;3.20;99.90;;;;;;4928115;29;20493;-75
2021/01/11 11:25:32;;;;;;;19.88;6.97;;;3.10;99.90;;;;;;4926666;29;20032;-77
2021/01/11 11:28:08;;;;;;;14.07;5.47;;;3.20;99.90;;;;;;4926680;29;20036;-73
2021/01/11 11:30:33;;;;;;;16.05;6.75;;;3.20;99.90;;;;;;4904304;29;20104;-76
2021/01/11 11:32:59;;;;;;;13.50;6.00;;;3.20;99.90;;;;;;4910052;29;20024;-76
2021/01/11 11:35:25;;;;;;;14.75;6.28;;;3.10;99.90;;;;;;4926141;29;20043;-76
2021/01/11 11:37:51;;;;;;;21.83;5.93;;;3.20;99.90;;;;;;4927026;29;20032;-76
2021/01/11 11:40:17;;;;;;;15.30;5.40;;;3.20;99.90;;;;;;4926085;29;20036;-74
2021/01/11 11:42:44;;;;;;;11.90;5.50;;;3.20;99.90;;;;;;4927528;29;20063;-70
2021/01/11 11:45:15;;;;;;;16.90;6.40;;;3.20;99.90;;;;;;4924551;29;20024;-73
2021/01/11 11:47:43;;;;;;;20.50;6.72;;;3.10;99.90;;;;;;4927710;29;20048;-73
2021/01/11 11:50:15;;;;;;;16.33;6.60;;;3.20;99.90;;;;;;4927568;29;20025;-74
2021/01/11 11:52:41;;;;;;;11.75;6.15;;;3.20;99.90;;;;;;4927619;29;20098;-79
2021/01/11 11:55:10;;;;;;;15.27;6.72;;;3.20;99.90;;;;;;4926190;29;20034;-75
2021/01/11 11:57:38;;;;;;;15.20;7.05;;;3.20;99.90;;;;;;4910190;29;20481;-74
2021/01/11 12:00:04;;;;;;;16.85;6.82;;;3.20;99.90;;;;;;4926379;29;20028;-72
2021/01/11 12:02:30;;;;;;;12.85;5.63;;;3.20;99.90;;;;;;4925842;29;20091;-79
2021/01/11 12:04:55;;;;;;;12.07;6.80;;;3.20;99.90;;;;;;4927560;29;20035;-74
2021/01/11 12:07:23;;;;;;;19.75;7.38;;;3.20;99.90;;;;;;4927810;29;20043;-76
2021/01/11 12:09:51;;;;;;;9.68;5.15;;;3.20;99.90;;;;;;4926830;29;20032;-74
2021/01/11 12:12:17;;;;;;;12.73;5.30;;;3.20;99.90;;;;;;4927502;29;20060;-71
2021/01/11 12:14:43;;;;;;;12.25;4.43;;;3.20;99.90;;;;;;4927510;29;20122;-76
2021/01/11 12:17:09;;;;;;;11.65;5.57;;;3.20;99.90;;;;;;4927684;29;20036;-72
2021/01/11 12:19:34;;;;;;;24.23;6.03;;;3.20;99.90;;;;;;4927667;29;20048;-71
2021/01/11 12:22:00;;;;;;;17.70;6.80;;;3.20;99.90;;;;;;4909812;29;20038;-73
2021/01/11 12:24:26;;;;;;;10.75;3.42;;;3.20;99.90;;;;;;4927447;29;20028;-76
2021/01/11 12:26:54;;;;;;;15.73;6.05;;;3.20;99.90;;;;;;4927509;29;20070;-77
2021/01/11 12:29:19;;;;;;;7.78;3.75;;;3.20;99.90;;;;;;4926066;29;20032;-73
2021/01/11 12:31:45;;;;;;;13.43;6.30;;;3.20;99.90;;;;;;4905377;29;20060;-75
2021/01/11 12:34:11;;;;;;;17.63;7.03;;;3.20;99.90;;;;;;4889240;29;20118;-74
2021/01/11 12:36:38;;;;;;;8.02;4.85;;;3.20;99.90;;;;;;4889633;29;20073;-75
2021/01/11 12:39:08;;;;;;;11.23;5.93;;;3.20;99.90;;;;;;4888482;29;20025;-75
2021/01/11 12:41:34;;;;;;;7.50;4.13;;;3.20;99.90;;;;;;4870761;29;20037;-71
2021/01/11 12:43:59;;;;;;;15.88;6.35;;;3.20;99.90;;;;;;4874002;29;20090;-76
2021/01/11 12:46:25;;;;;;;12.70;6.05;;;3.20;99.90;;;;;;4888620;29;20041;-76
2021/01/11 12:48:51;;;;;;;16.27;7.47;;;3.20;99.90;;;;;;4873685;29;20036;-72
2021/01/11 12:51:19;;;;;;;18.08;6.85;;;3.20;99.90;;;;;;4874605;29;20046;-74
2021/01/11 12:53:49;;;;;;;14.52;6.68;;;3.30;99.90;;;;;;4874331;29;20041;-74